sensor_id;sensor_type;location;lat;lon;timestamp;temperature;humidity
22629;DHT22;11481;53.694;9.910;2023-06-10T00:00:11;19.20;99.90
22629;DHT22;11481;53.694;9.910;2023-06-10T00:02:41;19.30;99.90
22629;DHT22;11481;53.694;9.910;2023-06-10T00:05:09;19.40;99.90
22629;DHT22;11481;53.694;9.910;2023-06-10T00:07:36;19.40;99.90
22629;DHT22;11481;53.694;9.910;2023-06-10T00:10:05;19.40;99.90
22629;DHT22;11481;53.694;9.910;2023-06-10T00:12:33;19.50;99.90
22629;DHT22;11481;53.694;9.910;2023-06-10T00:15:05;19.50;99.90
22629;DHT22;11481;53.694;9.910;2023-06-10T00:17:34;19.50;99.90
22629;DHT22;11481;53.694;9.910;2023-06-10T00:20:01;19.40;99.90
22629;DHT22;11481;53.694;9.910;2023-06-10T00:22:32;19.40;99.90
22629;DHT22;11481;53.694;9.910;2023-06-10T00:24:58;19.20;99.90
22629;DHT22;11481;53.694;9.910;2023-06-10T00:27:25;19.20;99.90
22629;DHT22;11481;53.694;9.910;2023-06-10T00:29:57;19.30;99.90
22629;DHT22;11481;53.694;9.910;2023-06-10T00:32:24;19.20;99.90
22629;DHT22;11481;53.694;9.910;2023-06-10T00:34:51;19.10;99.90
22629;DHT22;11481;53.694;9.910;2023-06-10T00:37:17;19.00;99.90
22629;DHT22;11481;53.694;9.910;2023-06-10T00:39:44;19.00;99.90
22629;DHT22;11481;53.694;9.910;2023-06-10T00:42:11;19.00;99.90
22629;DHT22;11481;53.694;9.910;2023-06-10T00:44:37;19.10;99.90
22629;DHT22;11481;53.694;9.910;2023-06-10T00:47:05;19.00;99.90
22629;DHT22;11481;53.694;9.910;2023-06-10T00:49:32;18.90;99.90
22629;DHT22;11481;53.694;9.910;2023-06-10T00:51:59;18.90;99.90
22629;DHT22;11481;53.694;9.910;2023-06-10T00:54:26;18.80;99.90
22629;DHT22;11481;53.694;9.910;2023-06-10T00:56:53;18.80;99.90
22629;DHT22;11481;53.694;9.910;2023-06-10T00:59:20;18.70;99.90
22629;DHT22;11481;53.694;9.910;2023-06-10T01:01:46;18.80;99.90
22629;DHT22;11481;53.694;9.910;2023-06-10T01:04:14;18.70;99.90
22629;DHT22;11481;53.694;9.910;2023-06-10T01:09:32;18.50;99.90
22629;DHT22;11481;53.694;9.910;2023-06-10T01:14:38;18.30;99.90
22629;DHT22;11481;53.694;9.910;2023-06-10T01:17:12;18.20;99.90
22629;DHT22;11481;53.694;9.910;2023-06-10T01:19:39;18.10;99.90
22629;DHT22;11481;53.694;9.910;2023-06-10T01:22:07;18.00;99.90
22629;DHT22;11481;53.694;9.910;2023-06-10T01:24:34;18.00;99.90
22629;DHT22;11481;53.694;9.910;2023-06-10T01:27:05;17.90;99.90
22629;DHT22;11481;53.694;9.910;2023-06-10T01:29:42;17.90;99.90
22629;DHT22;11481;53.694;9.910;2023-06-10T01:32:18;17.80;99.90
22629;DHT22;11481;53.694;9.910;2023-06-10T01:34:48;17.80;99.90
22629;DHT22;11481;53.694;9.910;2023-06-10T01:37:18;17.60;99.90
22629;DHT22;11481;53.694;9.910;2023-06-10T01:39:46;17.60;99.90
22629;DHT22;11481;53.694;9.910;2023-06-10T01:42:14;17.60;99.90
22629;DHT22;11481;53.694;9.910;2023-06-10T01:44:41;17.70;99.90
22629;DHT22;11481;53.694;9.910;2023-06-10T01:47:08;17.70;99.90
22629;DHT22;11481;53.694;9.910;2023-06-10T01:49:35;17.80;99.90
22629;DHT22;11481;53.694;9.910;2023-06-10T01:52:04;17.80;99.90
22629;DHT22;11481;53.694;9.910;2023-06-10T01:54:31;17.80;99.90
22629;DHT22;11481;53.694;9.910;2023-06-10T01:57:01;17.70;99.90
22629;DHT22;11481;53.694;9.910;2023-06-10T01:59:28;17.70;99.90
22629;DHT22;11481;53.694;9.910;2023-06-10T02:01:55;17.70;99.90
22629;DHT22;11481;53.694;9.910;2023-06-10T02:04:21;17.80;99.90
22629;DHT22;11481;53.694;9.910;2023-06-10T02:06:48;17.90;99.90
22629;DHT22;11481;53.694;9.910;2023-06-10T02:09:14;17.90;99.90
22629;DHT22;11481;53.694;9.910;2023-06-10T02:11:41;18.00;99.90
22629;DHT22;11481;53.694;9.910;2023-06-10T02:14:08;17.60;99.90
22629;DHT22;11481;53.694;9.910;2023-06-10T02:16:34;17.40;99.90
22629;DHT22;11481;53.694;9.910;2023-06-10T02:19:01;17.30;99.90
22629;DHT22;11481;53.694;9.910;2023-06-10T02:21:29;17.20;99.90
22629;DHT22;11481;53.694;9.910;2023-06-10T02:23:56;17.00;99.90
22629;DHT22;11481;53.694;9.910;2023-06-10T02:26:23;17.00;99.90
22629;DHT22;11481;53.694;9.910;2023-06-10T02:28:52;17.00;99.90
22629;DHT22;11481;53.694;9.910;2023-06-10T02:31:18;17.00;99.90
22629;DHT22;11481;53.694;9.910;2023-06-10T02:33:46;16.70;99.90
22629;DHT22;11481;53.694;9.910;2023-06-10T02:36:12;16.50;99.90
22629;DHT22;11481;53.694;9.910;2023-06-10T02:38:39;16.50;99.90
22629;DHT22;11481;53.694;9.910;2023-06-10T02:41:06;16.50;99.90
22629;DHT22;11481;53.694;9.910;2023-06-10T02:43:33;16.50;99.90
22629;DHT22;11481;53.694;9.910;2023-06-10T02:46:00;16.60;99.90
22629;DHT22;11481;53.694;9.910;2023-06-10T02:48:27;16.60;99.90
22629;DHT22;11481;53.694;9.910;2023-06-10T02:50:54;16.70;99.90
22629;DHT22;11481;53.694;9.910;2023-06-10T02:53:22;16.60;99.90
22629;DHT22;11481;53.694;9.910;2023-06-10T02:55:49;16.60;99.90
22629;DHT22;11481;53.694;9.910;2023-06-10T02:58:15;16.50;99.90
22629;DHT22;11481;53.694;9.910;2023-06-10T03:00:42;16.40;99.90
22629;DHT22;11481;53.694;9.910;2023-06-10T03:03:09;16.30;99.90
22629;DHT22;11481;53.694;9.910;2023-06-10T03:05:37;16.30;99.90
22629;DHT22;11481;53.694;9.910;2023-06-10T03:08:04;16.30;99.90
22629;DHT22;11481;53.694;9.910;2023-06-10T03:10:30;16.40;99.90
22629;DHT22;11481;53.694;9.910;2023-06-10T03:12:59;16.40;99.90
22629;DHT22;11481;53.694;9.910;2023-06-10T03:15:26;16.20;99.90
22629;DHT22;11481;53.694;9.910;2023-06-10T03:17:55;16.10;99.90
22629;DHT22;11481;53.694;9.910;2023-06-10T03:20:21;16.10;99.90
22629;DHT22;11481;53.694;9.910;2023-06-10T03:22:48;16.10;99.90
22629;DHT22;11481;53.694;9.910;2023-06-10T03:25:15;16.10;99.90
22629;DHT22;11481;53.694;9.910;2023-06-10T03:27:42;16.10;99.90
22629;DHT22;11481;53.694;9.910;2023-06-10T03:30:09;16.20;99.90
22629;DHT22;11481;53.694;9.910;2023-06-10T03:32:36;16.20;99.90
22629;DHT22;11481;53.694;9.910;2023-06-10T03:35:04;16.30;99.90
22629;DHT22;11481;53.694;9.910;2023-06-10T03:37:31;16.10;99.90
22629;DHT22;11481;53.694;9.910;2023-06-10T03:39:57;16.00;99.90
22629;DHT22;11481;53.694;9.910;2023-06-10T03:42:24;15.90;99.90
22629;DHT22;11481;53.694;9.910;2023-06-10T03:44:51;15.80;99.90
22629;DHT22;11481;53.694;9.910;2023-06-10T03:47:18;15.80;99.90
22629;DHT22;11481;53.694;9.910;2023-06-10T03:49:44;15.70;99.90
22629;DHT22;11481;53.694;9.910;2023-06-10T03:52:11;15.70;99.90
22629;DHT22;11481;53.694;9.910;2023-06-10T03:54:38;15.60;99.90
22629;DHT22;11481;53.694;9.910;2023-06-10T03:57:05;15.50;99.90
22629;DHT22;11481;53.694;9.910;2023-06-10T03:59:32;15.50;99.90
22629;DHT22;11481;53.694;9.910;2023-06-10T04:01:59;15.40;99.90
22629;DHT22;11481;53.694;9.910;2023-06-10T04:04:27;15.40;99.90
22629;DHT22;11481;53.694;9.910;2023-06-10T04:06:53;15.40;99.90
22629;DHT22;11481;53.694;9.910;2023-06-10T04:09:20;15.40;99.90
22629;DHT22;11481;53.694;9.910;2023-06-10T04:11:46;15.50;99.90
22629;DHT22;11481;53.694;9.910;2023-06-10T04:14:14;15.40;99.90
22629;DHT22;11481;53.694;9.910;2023-06-10T04:16:41;15.30;99.90
22629;DHT22;11481;53.694;9.910;2023-06-10T04:19:09;15.40;99.90
22629;DHT22;11481;53.694;9.910;2023-06-10T04:21:36;15.50;99.90
22629;DHT22;11481;53.694;9.910;2023-06-10T04:24:03;15.50;99.90
22629;DHT22;11481;53.694;9.910;2023-06-10T04:26:30;15.70;99.90
22629;DHT22;11481;53.694;9.910;2023-06-10T04:28:56;15.70;99.90
22629;DHT22;11481;53.694;9.910;2023-06-10T04:31:23;15.90;99.90
22629;DHT22;11481;53.694;9.910;2023-06-10T04:33:50;16.00;99.90
22629;DHT22;11481;53.694;9.910;2023-06-10T04:36:16;16.10;99.90
22629;DHT22;11481;53.694;9.910;2023-06-10T04:38:43;16.10;99.90
22629;DHT22;11481;53.694;9.910;2023-06-10T04:41:10;16.00;99.90
22629;DHT22;11481;53.694;9.910;2023-06-10T04:43:38;16.00;99.90
22629;DHT22;11481;53.694;9.910;2023-06-10T04:46:05;15.90;99.90
22629;DHT22;11481;53.694;9.910;2023-06-10T04:48:34;15.90;99.90
22629;DHT22;11481;53.694;9.910;2023-06-10T04:51:02;16.00;99.90
22629;DHT22;11481;53.694;9.910;2023-06-10T04:53:29;16.00;99.90
22629;DHT22;11481;53.694;9.910;2023-06-10T04:55:56;16.10;99.90
22629;DHT22;11481;53.694;9.910;2023-06-10T04:58:24;16.00;99.90
22629;DHT22;11481;53.694;9.910;2023-06-10T05:00:50;16.00;99.90
22629;DHT22;11481;53.694;9.910;2023-06-10T05:03:17;16.10;99.90
22629;DHT22;11481;53.694;9.910;2023-06-10T05:05:44;16.20;99.90
22629;DHT22;11481;53.694;9.910;2023-06-10T05:08:11;16.30;99.90
22629;DHT22;11481;53.694;9.910;2023-06-10T05:10:37;16.30;99.90
22629;DHT22;11481;53.694;9.910;2023-06-10T05:13:05;16.40;99.90
22629;DHT22;11481;53.694;9.910;2023-06-10T05:15:31;16.50;99.90
22629;DHT22;11481;53.694;9.910;2023-06-10T05:17:58;16.60;99.90
22629;DHT22;11481;53.694;9.910;2023-06-10T05:20:25;16.70;99.90
22629;DHT22;11481;53.694;9.910;2023-06-10T05:22:53;16.80;99.90
22629;DHT22;11481;53.694;9.910;2023-06-10T05:25:20;16.90;99.90
22629;DHT22;11481;53.694;9.910;2023-06-10T05:27:47;17.00;99.90
22629;DHT22;11481;53.694;9.910;2023-06-10T05:30:13;17.10;99.90
22629;DHT22;11481;53.694;9.910;2023-06-10T05:32:40;17.10;99.90
22629;DHT22;11481;53.694;9.910;2023-06-10T05:35:07;17.10;99.90
22629;DHT22;11481;53.694;9.910;2023-06-10T05:37:34;17.20;99.90
22629;DHT22;11481;53.694;9.910;2023-06-10T05:40:03;17.20;99.90
22629;DHT22;11481;53.694;9.910;2023-06-10T05:42:30;17.20;99.90
22629;DHT22;11481;53.694;9.910;2023-06-10T05:44:57;17.20;99.90
22629;DHT22;11481;53.694;9.910;2023-06-10T05:47:24;17.20;99.90
22629;DHT22;11481;53.694;9.910;2023-06-10T05:49:51;17.30;99.90
22629;DHT22;11481;53.694;9.910;2023-06-10T05:52:18;17.30;99.90
22629;DHT22;11481;53.694;9.910;2023-06-10T05:54:45;17.40;99.90
22629;DHT22;11481;53.694;9.910;2023-06-10T05:57:25;17.30;99.90
22629;DHT22;11481;53.694;9.910;2023-06-10T05:59:52;17.30;99.90
22629;DHT22;11481;53.694;9.910;2023-06-10T06:02:19;17.50;99.90
22629;DHT22;11481;53.694;9.910;2023-06-10T06:04:46;17.50;99.90
22629;DHT22;11481;53.694;9.910;2023-06-10T06:07:12;17.40;99.90
22629;DHT22;11481;53.694;9.910;2023-06-10T06:09:39;17.50;99.90
22629;DHT22;11481;53.694;9.910;2023-06-10T06:12:07;17.60;99.90
22629;DHT22;11481;53.694;9.910;2023-06-10T06:14:37;17.60;99.90
22629;DHT22;11481;53.694;9.910;2023-06-10T06:17:06;17.60;99.90
22629;DHT22;11481;53.694;9.910;2023-06-10T06:19:33;17.70;99.90
22629;DHT22;11481;53.694;9.910;2023-06-10T06:22:00;17.80;99.90
22629;DHT22;11481;53.694;9.910;2023-06-10T06:24:26;17.90;99.90
22629;DHT22;11481;53.694;9.910;2023-06-10T06:26:53;17.90;99.90
22629;DHT22;11481;53.694;9.910;2023-06-10T06:29:21;18.10;99.90
22629;DHT22;11481;53.694;9.910;2023-06-10T06:31:48;18.20;99.90
22629;DHT22;11481;53.694;9.910;2023-06-10T06:34:15;18.20;99.90
22629;DHT22;11481;53.694;9.910;2023-06-10T06:36:42;18.30;99.90
22629;DHT22;11481;53.694;9.910;2023-06-10T06:39:09;18.40;99.90
22629;DHT22;11481;53.694;9.910;2023-06-10T06:41:38;18.40;99.90
22629;DHT22;11481;53.694;9.910;2023-06-10T06:44:04;18.50;99.90
22629;DHT22;11481;53.694;9.910;2023-06-10T06:46:31;18.50;99.90
22629;DHT22;11481;53.694;9.910;2023-06-10T06:48:58;18.50;99.90
22629;DHT22;11481;53.694;9.910;2023-06-10T06:51:24;18.50;99.90
22629;DHT22;11481;53.694;9.910;2023-06-10T06:53:51;18.70;99.90
22629;DHT22;11481;53.694;9.910;2023-06-10T06:56:21;18.60;99.90
22629;DHT22;11481;53.694;9.910;2023-06-10T06:58:47;18.60;99.90
22629;DHT22;11481;53.694;9.910;2023-06-10T07:01:14;18.70;99.90
22629;DHT22;11481;53.694;9.910;2023-06-10T07:03:41;18.80;99.90
22629;DHT22;11481;53.694;9.910;2023-06-10T07:06:08;18.80;99.90
22629;DHT22;11481;53.694;9.910;2023-06-10T07:08:34;18.90;99.90
22629;DHT22;11481;53.694;9.910;2023-06-10T07:11:01;19.00;99.90
22629;DHT22;11481;53.694;9.910;2023-06-10T07:13:27;19.20;99.90
22629;DHT22;11481;53.694;9.910;2023-06-10T07:15:56;19.40;99.90
22629;DHT22;11481;53.694;9.910;2023-06-10T07:18:23;19.40;99.90
22629;DHT22;11481;53.694;9.910;2023-06-10T07:20:50;19.50;99.90
22629;DHT22;11481;53.694;9.910;2023-06-10T07:23:18;19.60;99.90
22629;DHT22;11481;53.694;9.910;2023-06-10T07:25:44;19.60;99.90
22629;DHT22;11481;53.694;9.910;2023-06-10T07:28:11;19.70;99.90
22629;DHT22;11481;53.694;9.910;2023-06-10T07:30:38;19.80;99.90
22629;DHT22;11481;53.694;9.910;2023-06-10T07:33:04;20.00;99.90
22629;DHT22;11481;53.694;9.910;2023-06-10T07:35:34;20.10;99.90
22629;DHT22;11481;53.694;9.910;2023-06-10T07:38:01;20.10;99.90
22629;DHT22;11481;53.694;9.910;2023-06-10T07:40:27;20.00;99.90
22629;DHT22;11481;53.694;9.910;2023-06-10T07:43:00;20.10;99.90
22629;DHT22;11481;53.694;9.910;2023-06-10T07:45:27;20.30;99.90
22629;DHT22;11481;53.694;9.910;2023-06-10T07:47:56;20.40;99.90
22629;DHT22;11481;53.694;9.910;2023-06-10T07:50:24;20.50;99.90
22629;DHT22;11481;53.694;9.910;2023-06-10T07:52:51;20.60;99.90
22629;DHT22;11481;53.694;9.910;2023-06-10T07:55:18;20.70;99.90
22629;DHT22;11481;53.694;9.910;2023-06-10T07:57:44;20.60;99.90
22629;DHT22;11481;53.694;9.910;2023-06-10T08:00:11;20.50;99.90
22629;DHT22;11481;53.694;9.910;2023-06-10T08:02:39;20.70;99.90
22629;DHT22;11481;53.694;9.910;2023-06-10T08:05:06;20.70;99.90
22629;DHT22;11481;53.694;9.910;2023-06-10T08:07:33;20.70;99.90
22629;DHT22;11481;53.694;9.910;2023-06-10T08:10:00;20.70;99.90
22629;DHT22;11481;53.694;9.910;2023-06-10T08:12:27;20.80;99.90
22629;DHT22;11481;53.694;9.910;2023-06-10T08:14:54;20.90;99.90
22629;DHT22;11481;53.694;9.910;2023-06-10T08:17:21;21.00;99.90
22629;DHT22;11481;53.694;9.910;2023-06-10T08:19:49;21.10;99.90
22629;DHT22;11481;53.694;9.910;2023-06-10T08:22:15;21.20;99.90
22629;DHT22;11481;53.694;9.910;2023-06-10T08:24:42;21.20;99.90
22629;DHT22;11481;53.694;9.910;2023-06-10T08:27:10;21.20;99.90
22629;DHT22;11481;53.694;9.910;2023-06-10T08:29:36;21.20;99.90
22629;DHT22;11481;53.694;9.910;2023-06-10T08:32:03;21.10;99.90
22629;DHT22;11481;53.694;9.910;2023-06-10T08:36:58;21.10;99.90
22629;DHT22;11481;53.694;9.910;2023-06-10T08:39:25;21.20;99.90
22629;DHT22;11481;53.694;9.910;2023-06-10T08:42:05;21.30;99.90
22629;DHT22;11481;53.694;9.910;2023-06-10T08:44:36;21.50;99.90
22629;DHT22;11481;53.694;9.910;2023-06-10T08:47:13;21.70;99.90
22629;DHT22;11481;53.694;9.910;2023-06-10T08:49:44;21.90;99.90
22629;DHT22;11481;53.694;9.910;2023-06-10T08:52:17;21.80;99.90
22629;DHT22;11481;53.694;9.910;2023-06-10T08:54:57;21.70;99.90
22629;DHT22;11481;53.694;9.910;2023-06-10T08:57:25;21.40;99.90
22629;DHT22;11481;53.694;9.910;2023-06-10T08:59:53;21.40;99.90
22629;DHT22;11481;53.694;9.910;2023-06-10T09:02:21;21.60;99.90
22629;DHT22;11481;53.694;9.910;2023-06-10T09:04:49;21.90;99.90
22629;DHT22;11481;53.694;9.910;2023-06-10T09:07:18;22.10;99.90
22629;DHT22;11481;53.694;9.910;2023-06-10T09:09:45;22.20;99.90
22629;DHT22;11481;53.694;9.910;2023-06-10T09:12:15;22.20;99.90
22629;DHT22;11481;53.694;9.910;2023-06-10T09:14:42;22.30;99.90
22629;DHT22;11481;53.694;9.910;2023-06-10T09:17:10;22.30;99.90
22629;DHT22;11481;53.694;9.910;2023-06-10T09:19:38;22.40;99.90
22629;DHT22;11481;53.694;9.910;2023-06-10T09:22:05;22.40;99.90
22629;DHT22;11481;53.694;9.910;2023-06-10T09:24:32;22.40;99.90
22629;DHT22;11481;53.694;9.910;2023-06-10T09:27:07;22.20;99.90
22629;DHT22;11481;53.694;9.910;2023-06-10T09:32:15;22.50;99.90
22629;DHT22;11481;53.694;9.910;2023-06-10T09:34:43;22.60;99.90
22629;DHT22;11481;53.694;9.910;2023-06-10T09:37:10;22.90;99.90
22629;DHT22;11481;53.694;9.910;2023-06-10T09:39:40;22.90;99.90
22629;DHT22;11481;53.694;9.910;2023-06-10T09:42:17;23.00;99.90
22629;DHT22;11481;53.694;9.910;2023-06-10T09:44:52;23.10;99.90
22629;DHT22;11481;53.694;9.910;2023-06-10T09:47:22;22.80;99.90
22629;DHT22;11481;53.694;9.910;2023-06-10T09:49:49;22.80;99.90
22629;DHT22;11481;53.694;9.910;2023-06-10T09:52:23;22.80;99.90
22629;DHT22;11481;53.694;9.910;2023-06-10T09:54:52;22.90;99.90
22629;DHT22;11481;53.694;9.910;2023-06-10T09:57:20;23.20;99.90
22629;DHT22;11481;53.694;9.910;2023-06-10T09:59:47;23.40;99.90
22629;DHT22;11481;53.694;9.910;2023-06-10T10:02:17;23.30;99.90
22629;DHT22;11481;53.694;9.910;2023-06-10T10:04:44;23.30;99.90
22629;DHT22;11481;53.694;9.910;2023-06-10T10:07:11;23.40;99.90
22629;DHT22;11481;53.694;9.910;2023-06-10T10:09:39;23.40;99.90
22629;DHT22;11481;53.694;9.910;2023-06-10T10:12:09;23.40;99.90
22629;DHT22;11481;53.694;9.910;2023-06-10T10:14:37;23.60;99.90
22629;DHT22;11481;53.694;9.910;2023-06-10T10:17:09;23.80;99.90
22629;DHT22;11481;53.694;9.910;2023-06-10T10:19:48;24.00;99.90
22629;DHT22;11481;53.694;9.910;2023-06-10T10:22:20;24.00;99.90
22629;DHT22;11481;53.694;9.910;2023-06-10T10:24:53;23.90;99.90
22629;DHT22;11481;53.694;9.910;2023-06-10T10:27:51;24.00;99.90
22629;DHT22;11481;53.694;9.910;2023-06-10T10:30:20;24.20;99.90
22629;DHT22;11481;53.694;9.910;2023-06-10T10:32:52;24.30;99.90
22629;DHT22;11481;53.694;9.910;2023-06-10T10:35:23;24.30;99.90
22629;DHT22;11481;53.694;9.910;2023-06-10T10:37:54;24.30;99.90
22629;DHT22;11481;53.694;9.910;2023-06-10T10:40:22;24.40;99.90
22629;DHT22;11481;53.694;9.910;2023-06-10T10:42:50;24.50;99.90
22629;DHT22;11481;53.694;9.910;2023-06-10T10:45:17;24.60;99.90
22629;DHT22;11481;53.694;9.910;2023-06-10T10:47:46;24.70;99.90
22629;DHT22;11481;53.694;9.910;2023-06-10T10:50:19;24.90;99.90
22629;DHT22;11481;53.694;9.910;2023-06-10T10:52:55;24.80;99.90
22629;DHT22;11481;53.694;9.910;2023-06-10T10:55:26;24.50;99.90
22629;DHT22;11481;53.694;9.910;2023-06-10T10:58:04;24.30;99.90
22629;DHT22;11481;53.694;9.910;2023-06-10T11:00:34;24.20;99.90
22629;DHT22;11481;53.694;9.910;2023-06-10T11:05:40;24.50;99.90
22629;DHT22;11481;53.694;9.910;2023-06-10T11:08:08;24.70;99.90
22629;DHT22;11481;53.694;9.910;2023-06-10T11:10:37;24.80;99.90
22629;DHT22;11481;53.694;9.910;2023-06-10T11:13:13;25.20;99.90
22629;DHT22;11481;53.694;9.910;2023-06-10T11:15:48;25.30;99.90
22629;DHT22;11481;53.694;9.910;2023-06-10T11:18:26;25.30;99.90
22629;DHT22;11481;53.694;9.910;2023-06-10T11:21:04;25.30;99.90
22629;DHT22;11481;53.694;9.910;2023-06-10T11:23:38;25.50;99.90
22629;DHT22;11481;53.694;9.910;2023-06-10T11:26:29;25.50;99.90
22629;DHT22;11481;53.694;9.910;2023-06-10T11:29:06;25.60;99.90
22629;DHT22;11481;53.694;9.910;2023-06-10T11:31:40;25.80;99.90
22629;DHT22;11481;53.694;9.910;2023-06-10T11:34:07;25.90;99.90
22629;DHT22;11481;53.694;9.910;2023-06-10T11:36:37;26.00;99.90
22629;DHT22;11481;53.694;9.910;2023-06-10T11:39:10;26.10;99.90
22629;DHT22;11481;53.694;9.910;2023-06-10T11:41:38;26.20;99.90
22629;DHT22;11481;53.694;9.910;2023-06-10T11:44:10;26.30;99.90
22629;DHT22;11481;53.694;9.910;2023-06-10T11:46:38;26.20;99.90
22629;DHT22;11481;53.694;9.910;2023-06-10T11:49:06;26.20;99.90
22629;DHT22;11481;53.694;9.910;2023-06-10T11:51:36;26.40;99.90
22629;DHT22;11481;53.694;9.910;2023-06-10T11:54:04;26.40;99.90
22629;DHT22;11481;53.694;9.910;2023-06-10T11:56:32;26.60;99.90
22629;DHT22;11481;53.694;9.910;2023-06-10T11:59:05;26.60;99.90
22629;DHT22;11481;53.694;9.910;2023-06-10T12:01:40;26.90;99.90
22629;DHT22;11481;53.694;9.910;2023-06-10T12:04:15;26.80;99.90
22629;DHT22;11481;53.694;9.910;2023-06-10T12:06:51;27.00;99.90
22629;DHT22;11481;53.694;9.910;2023-06-10T12:09:25;27.20;99.90
22629;DHT22;11481;53.694;9.910;2023-06-10T12:12:04;27.30;99.90
22629;DHT22;11481;53.694;9.910;2023-06-10T12:14:54;27.30;99.90
22629;DHT22;11481;53.694;9.910;2023-06-10T12:19:59;27.40;99.90
22629;DHT22;11481;53.694;9.910;2023-06-10T12:22:27;27.40;99.90
22629;DHT22;11481;53.694;9.910;2023-06-10T12:25:02;27.60;99.90
22629;DHT22;11481;53.694;9.910;2023-06-10T12:27:30;27.60;99.90
22629;DHT22;11481;53.694;9.910;2023-06-10T12:29:59;27.50;99.90
22629;DHT22;11481;53.694;9.910;2023-06-10T12:32:41;27.60;99.90
22629;DHT22;11481;53.694;9.910;2023-06-10T12:35:09;27.60;99.90
22629;DHT22;11481;53.694;9.910;2023-06-10T12:37:38;27.80;99.90
22629;DHT22;11481;53.694;9.910;2023-06-10T12:40:09;27.90;99.90
22629;DHT22;11481;53.694;9.910;2023-06-10T12:42:37;28.00;99.90
22629;DHT22;11481;53.694;9.910;2023-06-10T12:45:05;28.10;99.90
22629;DHT22;11481;53.694;9.910;2023-06-10T12:47:37;28.10;99.90
22629;DHT22;11481;53.694;9.910;2023-06-10T12:50:06;28.30;99.90
22629;DHT22;11481;53.694;9.910;2023-06-10T12:52:33;28.50;99.90
22629;DHT22;11481;53.694;9.910;2023-06-10T12:54:59;28.60;99.90
22629;DHT22;11481;53.694;9.910;2023-06-10T12:57:27;28.50;99.90
22629;DHT22;11481;53.694;9.910;2023-06-10T12:59:53;28.50;99.90
22629;DHT22;11481;53.694;9.910;2023-06-10T13:02:20;28.60;99.90
22629;DHT22;11481;53.694;9.910;2023-06-10T13:04:50;28.80;99.90
22629;DHT22;11481;53.694;9.910;2023-06-10T13:07:17;28.70;99.90
22629;DHT22;11481;53.694;9.910;2023-06-10T13:09:44;28.40;99.90
22629;DHT22;11481;53.694;9.910;2023-06-10T13:12:11;28.60;99.90
22629;DHT22;11481;53.694;9.910;2023-06-10T13:14:42;28.80;99.90
22629;DHT22;11481;53.694;9.910;2023-06-10T13:17:08;28.80;99.90
22629;DHT22;11481;53.694;9.910;2023-06-10T13:19:35;28.50;99.90
22629;DHT22;11481;53.694;9.910;2023-06-10T13:22:03;28.60;99.90
22629;DHT22;11481;53.694;9.910;2023-06-10T13:24:30;28.70;99.90
22629;DHT22;11481;53.694;9.910;2023-06-10T13:26:56;28.80;99.90
22629;DHT22;11481;53.694;9.910;2023-06-10T13:29:24;29.00;99.90
22629;DHT22;11481;53.694;9.910;2023-06-10T13:31:52;28.90;99.90
22629;DHT22;11481;53.694;9.910;2023-06-10T13:34:19;28.90;99.90
22629;DHT22;11481;53.694;9.910;2023-06-10T13:36:46;28.60;99.90
22629;DHT22;11481;53.694;9.910;2023-06-10T13:39:14;28.30;99.90
22629;DHT22;11481;53.694;9.910;2023-06-10T13:41:42;28.20;99.90
22629;DHT22;11481;53.694;9.910;2023-06-10T13:44:08;28.40;99.90
22629;DHT22;11481;53.694;9.910;2023-06-10T13:46:35;28.80;99.90
22629;DHT22;11481;53.694;9.910;2023-06-10T13:49:02;28.90;99.90
22629;DHT22;11481;53.694;9.910;2023-06-10T13:51:28;29.10;99.90
22629;DHT22;11481;53.694;9.910;2023-06-10T13:53:56;29.20;99.90
22629;DHT22;11481;53.694;9.910;2023-06-10T13:56:23;29.40;99.90
22629;DHT22;11481;53.694;9.910;2023-06-10T13:58:50;29.40;99.90
22629;DHT22;11481;53.694;9.910;2023-06-10T14:01:16;29.40;99.90
22629;DHT22;11481;53.694;9.910;2023-06-10T14:03:43;29.50;99.90
22629;DHT22;11481;53.694;9.910;2023-06-10T14:06:11;29.70;99.90
22629;DHT22;11481;53.694;9.910;2023-06-10T14:08:41;29.90;99.90
22629;DHT22;11481;53.694;9.910;2023-06-10T14:11:09;29.80;99.90
22629;DHT22;11481;53.694;9.910;2023-06-10T14:13:35;29.50;99.90
22629;DHT22;11481;53.694;9.910;2023-06-10T14:16:04;29.60;99.90
22629;DHT22;11481;53.694;9.910;2023-06-10T14:18:31;29.60;99.90
22629;DHT22;11481;53.694;9.910;2023-06-10T14:20:59;29.50;99.90
22629;DHT22;11481;53.694;9.910;2023-06-10T14:23:26;29.50;99.90
22629;DHT22;11481;53.694;9.910;2023-06-10T14:25:53;29.60;99.90
22629;DHT22;11481;53.694;9.910;2023-06-10T14:28:19;29.90;99.90
22629;DHT22;11481;53.694;9.910;2023-06-10T14:30:46;29.90;99.90
22629;DHT22;11481;53.694;9.910;2023-06-10T14:33:13;29.50;99.90
22629;DHT22;11481;53.694;9.910;2023-06-10T14:35:40;29.30;99.90
22629;DHT22;11481;53.694;9.910;2023-06-10T14:38:09;29.50;99.90
22629;DHT22;11481;53.694;9.910;2023-06-10T14:40:36;29.90;99.90
22629;DHT22;11481;53.694;9.910;2023-06-10T14:43:03;30.10;99.90
22629;DHT22;11481;53.694;9.910;2023-06-10T14:45:37;30.30;99.90
22629;DHT22;11481;53.694;9.910;2023-06-10T14:48:05;30.50;99.90
22629;DHT22;11481;53.694;9.910;2023-06-10T14:50:37;30.50;99.90
22629;DHT22;11481;53.694;9.910;2023-06-10T14:53:05;30.60;99.90
22629;DHT22;11481;53.694;9.910;2023-06-10T14:55:31;30.80;99.90
22629;DHT22;11481;53.694;9.910;2023-06-10T14:57:58;30.80;99.90
22629;DHT22;11481;53.694;9.910;2023-06-10T15:00:25;31.00;99.90
22629;DHT22;11481;53.694;9.910;2023-06-10T15:02:52;31.10;99.90
22629;DHT22;11481;53.694;9.910;2023-06-10T15:05:20;31.20;99.90
22629;DHT22;11481;53.694;9.910;2023-06-10T15:07:47;30.90;99.90
22629;DHT22;11481;53.694;9.910;2023-06-10T15:10:14;30.80;99.90
22629;DHT22;11481;53.694;9.910;2023-06-10T15:12:42;30.70;99.90
22629;DHT22;11481;53.694;9.910;2023-06-10T15:15:09;30.70;99.90
22629;DHT22;11481;53.694;9.910;2023-06-10T15:17:36;30.60;99.90
22629;DHT22;11481;53.694;9.910;2023-06-10T15:20:04;30.80;99.90
22629;DHT22;11481;53.694;9.910;2023-06-10T15:22:32;30.80;99.90
22629;DHT22;11481;53.694;9.910;2023-06-10T15:25:02;30.80;99.90
22629;DHT22;11481;53.694;9.910;2023-06-10T15:27:46;30.80;99.90
22629;DHT22;11481;53.694;9.910;2023-06-10T15:30:13;30.80;99.90
22629;DHT22;11481;53.694;9.910;2023-06-10T15:32:41;30.60;99.90
22629;DHT22;11481;53.694;9.910;2023-06-10T15:35:08;30.60;99.90
22629;DHT22;11481;53.694;9.910;2023-06-10T15:37:35;30.70;99.90
22629;DHT22;11481;53.694;9.910;2023-06-10T15:40:05;30.70;99.90
22629;DHT22;11481;53.694;9.910;2023-06-10T15:42:32;30.80;99.90
22629;DHT22;11481;53.694;9.910;2023-06-10T15:44:58;31.00;99.90
22629;DHT22;11481;53.694;9.910;2023-06-10T15:47:25;31.00;99.90
22629;DHT22;11481;53.694;9.910;2023-06-10T15:49:52;31.00;99.90
22629;DHT22;11481;53.694;9.910;2023-06-10T15:52:18;30.90;99.90